sensor_id;sensor_type;location;lat;lon;timestamp;temperature;humidity
4056;DHT22;2043;52.184;8.690;2022-09-16T00:00:57;21.10;78.20
4056;DHT22;2043;52.184;8.690;2022-09-16T00:03:24;21.10;78.20
4056;DHT22;2043;52.184;8.690;2022-09-16T00:05:52;21.10;78.20
4056;DHT22;2043;52.184;8.690;2022-09-16T00:08:19;21.10;78.20
4056;DHT22;2043;52.184;8.690;2022-09-16T00:10:47;21.10;78.20
4056;DHT22;2043;52.184;8.690;2022-09-16T00:13:15;21.10;78.20
4056;DHT22;2043;52.184;8.690;2022-09-16T00:15:43;21.10;78.20
4056;DHT22;2043;52.184;8.690;2022-09-16T00:18:11;21.10;78.20
4056;DHT22;2043;52.184;8.690;2022-09-16T00:20:49;21.10;78.20
4056;DHT22;2043;52.184;8.690;2022-09-16T00:23:17;21.10;78.20
4056;DHT22;2043;52.184;8.690;2022-09-16T00:25:52;21.10;78.20
4056;DHT22;2043;52.184;8.690;2022-09-16T00:28:21;21.10;78.20
4056;DHT22;2043;52.184;8.690;2022-09-16T00:30:48;21.10;78.20
4056;DHT22;2043;52.184;8.690;2022-09-16T00:33:15;21.10;78.20
4056;DHT22;2043;52.184;8.690;2022-09-16T00:35:43;21.10;78.20
4056;DHT22;2043;52.184;8.690;2022-09-16T00:38:10;21.10;78.20
4056;DHT22;2043;52.184;8.690;2022-09-16T00:40:44;21.10;78.20
4056;DHT22;2043;52.184;8.690;2022-09-16T00:43:16;21.10;78.20
4056;DHT22;2043;52.184;8.690;2022-09-16T00:45:47;21.10;78.20
4056;DHT22;2043;52.184;8.690;2022-09-16T00:48:19;21.10;78.20
4056;DHT22;2043;52.184;8.690;2022-09-16T00:50:50;21.10;78.20
4056;DHT22;2043;52.184;8.690;2022-09-16T00:53:36;21.10;78.20
4056;DHT22;2043;52.184;8.690;2022-09-16T00:56:11;21.10;78.20
4056;DHT22;2043;52.184;8.690;2022-09-16T00:58:50;21.10;78.20
4056;DHT22;2043;52.184;8.690;2022-09-16T01:01:19;21.10;78.20
4056;DHT22;2043;52.184;8.690;2022-09-16T01:03:55;21.10;78.20
4056;DHT22;2043;52.184;8.690;2022-09-16T01:06:25;21.10;78.20
4056;DHT22;2043;52.184;8.690;2022-09-16T01:08:53;21.10;78.20
4056;DHT22;2043;52.184;8.690;2022-09-16T01:11:21;21.10;78.20
4056;DHT22;2043;52.184;8.690;2022-09-16T01:13:48;21.10;78.20
4056;DHT22;2043;52.184;8.690;2022-09-16T01:16:25;21.10;78.20
4056;DHT22;2043;52.184;8.690;2022-09-16T01:21:37;21.10;78.20
4056;DHT22;2043;52.184;8.690;2022-09-16T01:24:28;21.10;78.20
4056;DHT22;2043;52.184;8.690;2022-09-16T01:32:55;21.10;78.20
4056;DHT22;2043;52.184;8.690;2022-09-16T01:35:45;21.10;78.20
4056;DHT22;2043;52.184;8.690;2022-09-16T01:38:32;21.10;78.20
4056;DHT22;2043;52.184;8.690;2022-09-16T01:49:22;21.10;78.20
4056;DHT22;2043;52.184;8.690;2022-09-16T01:55:18;21.10;78.20
4056;DHT22;2043;52.184;8.690;2022-09-16T01:58:16;21.10;78.20
4056;DHT22;2043;52.184;8.690;2022-09-16T02:00:45;21.10;78.20
4056;DHT22;2043;52.184;8.690;2022-09-16T02:03:25;21.10;78.20
4056;DHT22;2043;52.184;8.690;2022-09-16T02:06:07;21.10;78.20
4056;DHT22;2043;52.184;8.690;2022-09-16T02:08:59;21.10;78.20
4056;DHT22;2043;52.184;8.690;2022-09-16T02:11:28;21.10;78.20
4056;DHT22;2043;52.184;8.690;2022-09-16T02:14:09;21.10;78.20
4056;DHT22;2043;52.184;8.690;2022-09-16T02:19:23;21.10;78.20
4056;DHT22;2043;52.184;8.690;2022-09-16T02:21:53;21.10;78.20
4056;DHT22;2043;52.184;8.690;2022-09-16T02:24:21;21.10;78.20
4056;DHT22;2043;52.184;8.690;2022-09-16T02:26:57;21.10;78.20
4056;DHT22;2043;52.184;8.690;2022-09-16T02:29:29;21.10;78.20
4056;DHT22;2043;52.184;8.690;2022-09-16T02:32:00;21.10;78.20
4056;DHT22;2043;52.184;8.690;2022-09-16T02:34:35;21.10;78.20
4056;DHT22;2043;52.184;8.690;2022-09-16T02:37:18;21.10;78.20
4056;DHT22;2043;52.184;8.690;2022-09-16T02:39:49;21.10;78.20
4056;DHT22;2043;52.184;8.690;2022-09-16T02:42:17;21.10;78.20
4056;DHT22;2043;52.184;8.690;2022-09-16T02:44:45;21.10;78.20
4056;DHT22;2043;52.184;8.690;2022-09-16T02:47:17;21.10;78.20
4056;DHT22;2043;52.184;8.690;2022-09-16T02:50:46;21.10;78.30
4056;DHT22;2043;52.184;8.690;2022-09-16T02:55:58;21.00;78.20
4056;DHT22;2043;52.184;8.690;2022-09-16T02:58:26;21.10;78.20
4056;DHT22;2043;52.184;8.690;2022-09-16T03:00:55;21.10;78.30
4056;DHT22;2043;52.184;8.690;2022-09-16T03:03:24;21.10;78.30
4056;DHT22;2043;52.184;8.690;2022-09-16T03:08:33;21.10;78.30
4056;DHT22;2043;52.184;8.690;2022-09-16T03:11:22;21.10;78.20
4056;DHT22;2043;52.184;8.690;2022-09-16T03:14:32;21.10;78.30
4056;DHT22;2043;52.184;8.690;2022-09-16T03:23:29;21.10;78.30
4056;DHT22;2043;52.184;8.690;2022-09-16T03:34:20;21.00;78.30
4056;DHT22;2043;52.184;8.690;2022-09-16T03:36:57;21.10;78.30
4056;DHT22;2043;52.184;8.690;2022-09-16T03:39:26;21.10;78.30
4056;DHT22;2043;52.184;8.690;2022-09-16T03:41:53;21.00;78.30
4056;DHT22;2043;52.184;8.690;2022-09-16T03:44:33;21.00;78.30
4056;DHT22;2043;52.184;8.690;2022-09-16T03:47:03;21.00;78.30
4056;DHT22;2043;52.184;8.690;2022-09-16T03:49:30;21.10;78.30
4056;DHT22;2043;52.184;8.690;2022-09-16T03:51:58;21.00;78.30
4056;DHT22;2043;52.184;8.690;2022-09-16T03:54:25;21.00;78.30
4056;DHT22;2043;52.184;8.690;2022-09-16T03:56:52;21.00;78.30
4056;DHT22;2043;52.184;8.690;2022-09-16T03:59:19;21.10;78.30
4056;DHT22;2043;52.184;8.690;2022-09-16T04:01:46;21.00;78.30
4056;DHT22;2043;52.184;8.690;2022-09-16T04:04:13;21.00;78.30
4056;DHT22;2043;52.184;8.690;2022-09-16T04:06:40;21.00;78.30
4056;DHT22;2043;52.184;8.690;2022-09-16T04:09:10;21.00;78.30
4056;DHT22;2043;52.184;8.690;2022-09-16T04:11:40;21.00;78.30
4056;DHT22;2043;52.184;8.690;2022-09-16T04:14:08;21.00;78.30
4056;DHT22;2043;52.184;8.690;2022-09-16T04:16:34;21.00;78.30
4056;DHT22;2043;52.184;8.690;2022-09-16T04:19:02;21.00;78.30
4056;DHT22;2043;52.184;8.690;2022-09-16T04:21:28;21.00;78.30
4056;DHT22;2043;52.184;8.690;2022-09-16T04:23:55;21.00;78.30
4056;DHT22;2043;52.184;8.690;2022-09-16T04:26:22;21.00;78.30
4056;DHT22;2043;52.184;8.690;2022-09-16T04:28:52;21.10;78.30
4056;DHT22;2043;52.184;8.690;2022-09-16T04:31:20;21.00;78.30
4056;DHT22;2043;52.184;8.690;2022-09-16T04:33:47;21.00;78.30
4056;DHT22;2043;52.184;8.690;2022-09-16T04:36:16;21.10;78.30
4056;DHT22;2043;52.184;8.690;2022-09-16T04:38:45;21.00;78.30
4056;DHT22;2043;52.184;8.690;2022-09-16T04:41:18;21.00;78.30
4056;DHT22;2043;52.184;8.690;2022-09-16T04:43:49;21.00;78.30
4056;DHT22;2043;52.184;8.690;2022-09-16T04:46:16;21.00;78.30
4056;DHT22;2043;52.184;8.690;2022-09-16T04:48:45;21.00;78.30
4056;DHT22;2043;52.184;8.690;2022-09-16T04:51:12;21.00;78.40
4056;DHT22;2043;52.184;8.690;2022-09-16T04:53:40;21.00;78.40
4056;DHT22;2043;52.184;8.690;2022-09-16T04:56:12;21.00;78.30
4056;DHT22;2043;52.184;8.690;2022-09-16T04:58:42;21.00;78.30
4056;DHT22;2043;52.184;8.690;2022-09-16T05:01:12;21.00;78.40
4056;DHT22;2043;52.184;8.690;2022-09-16T05:03:40;21.00;78.40
4056;DHT22;2043;52.184;8.690;2022-09-16T05:06:13;21.00;78.30
4056;DHT22;2043;52.184;8.690;2022-09-16T05:08:49;21.00;78.40
4056;DHT22;2043;52.184;8.690;2022-09-16T05:11:19;21.00;78.40
4056;DHT22;2043;52.184;8.690;2022-09-16T05:13:46;21.00;78.40
4056;DHT22;2043;52.184;8.690;2022-09-16T05:16:16;21.00;78.40
4056;DHT22;2043;52.184;8.690;2022-09-16T05:18:45;21.00;78.40
4056;DHT22;2043;52.184;8.690;2022-09-16T05:21:14;21.00;78.40
4056;DHT22;2043;52.184;8.690;2022-09-16T05:23:41;21.00;78.40
4056;DHT22;2043;52.184;8.690;2022-09-16T05:26:14;21.00;78.40
4056;DHT22;2043;52.184;8.690;2022-09-16T05:28:41;21.00;78.40
4056;DHT22;2043;52.184;8.690;2022-09-16T05:31:15;21.00;78.40
4056;DHT22;2043;52.184;8.690;2022-09-16T05:33:45;21.00;78.40
4056;DHT22;2043;52.184;8.690;2022-09-16T05:36:15;21.00;78.40
4056;DHT22;2043;52.184;8.690;2022-09-16T05:38:43;21.00;78.40
4056;DHT22;2043;52.184;8.690;2022-09-16T05:41:30;21.00;78.40
4056;DHT22;2043;52.184;8.690;2022-09-16T05:43:58;21.00;78.40
4056;DHT22;2043;52.184;8.690;2022-09-16T05:46:26;21.00;78.40
4056;DHT22;2043;52.184;8.690;2022-09-16T05:48:54;21.00;78.40
4056;DHT22;2043;52.184;8.690;2022-09-16T05:51:22;21.00;78.40
4056;DHT22;2043;52.184;8.690;2022-09-16T05:53:50;21.00;78.40
4056;DHT22;2043;52.184;8.690;2022-09-16T05:56:21;21.00;78.40
4056;DHT22;2043;52.184;8.690;2022-09-16T05:58:51;21.00;78.40
4056;DHT22;2043;52.184;8.690;2022-09-16T06:01:21;21.00;78.30
4056;DHT22;2043;52.184;8.690;2022-09-16T06:03:50;21.00;78.40
4056;DHT22;2043;52.184;8.690;2022-09-16T06:06:28;21.00;78.30
4056;DHT22;2043;52.184;8.690;2022-09-16T06:08:57;21.00;78.40
4056;DHT22;2043;52.184;8.690;2022-09-16T06:11:25;21.00;78.40
4056;DHT22;2043;52.184;8.690;2022-09-16T06:13:58;21.00;78.30
4056;DHT22;2043;52.184;8.690;2022-09-16T06:16:26;21.00;78.30
4056;DHT22;2043;52.184;8.690;2022-09-16T06:18:54;21.00;78.30
4056;DHT22;2043;52.184;8.690;2022-09-16T06:21:23;21.00;78.40
4056;DHT22;2043;52.184;8.690;2022-09-16T06:23:50;21.00;78.40
4056;DHT22;2043;52.184;8.690;2022-09-16T06:26:19;21.00;78.40
4056;DHT22;2043;52.184;8.690;2022-09-16T06:28:47;21.00;78.40
4056;DHT22;2043;52.184;8.690;2022-09-16T06:31:18;21.00;78.40
4056;DHT22;2043;52.184;8.690;2022-09-16T06:33:45;21.00;78.40
4056;DHT22;2043;52.184;8.690;2022-09-16T06:36:14;21.00;78.40
4056;DHT22;2043;52.184;8.690;2022-09-16T06:38:43;21.00;78.40
4056;DHT22;2043;52.184;8.690;2022-09-16T06:41:12;21.00;78.40
4056;DHT22;2043;52.184;8.690;2022-09-16T06:43:40;21.00;78.40
4056;DHT22;2043;52.184;8.690;2022-09-16T06:46:33;21.00;78.40
4056;DHT22;2043;52.184;8.690;2022-09-16T06:49:00;21.00;78.40
4056;DHT22;2043;52.184;8.690;2022-09-16T06:51:32;21.00;78.40
4056;DHT22;2043;52.184;8.690;2022-09-16T06:54:01;21.10;78.40
4056;DHT22;2043;52.184;8.690;2022-09-16T06:56:28;21.00;78.40
4056;DHT22;2043;52.184;8.690;2022-09-16T06:58:56;21.00;78.40
4056;DHT22;2043;52.184;8.690;2022-09-16T07:01:27;21.10;78.40
4056;DHT22;2043;52.184;8.690;2022-09-16T07:03:56;21.10;78.40
4056;DHT22;2043;52.184;8.690;2022-09-16T07:06:27;21.00;78.50
4056;DHT22;2043;52.184;8.690;2022-09-16T07:09:15;21.00;78.50
4056;DHT22;2043;52.184;8.690;2022-09-16T07:11:42;21.10;78.50
4056;DHT22;2043;52.184;8.690;2022-09-16T07:14:09;21.10;78.50
4056;DHT22;2043;52.184;8.690;2022-09-16T07:16:36;21.10;78.60
4056;DHT22;2043;52.184;8.690;2022-09-16T07:19:03;21.10;78.60
4056;DHT22;2043;52.184;8.690;2022-09-16T07:21:30;21.10;78.60
4056;DHT22;2043;52.184;8.690;2022-09-16T07:24:00;21.10;78.60
4056;DHT22;2043;52.184;8.690;2022-09-16T07:26:29;21.10;78.60
4056;DHT22;2043;52.184;8.690;2022-09-16T07:28:59;21.10;78.60
4056;DHT22;2043;52.184;8.690;2022-09-16T07:31:29;21.10;78.70
4056;DHT22;2043;52.184;8.690;2022-09-16T07:33:59;21.10;78.70
4056;DHT22;2043;52.184;8.690;2022-09-16T07:36:35;21.10;78.70
4056;DHT22;2043;52.184;8.690;2022-09-16T07:39:03;21.10;78.80
4056;DHT22;2043;52.184;8.690;2022-09-16T07:41:36;21.10;78.70
4056;DHT22;2043;52.184;8.690;2022-09-16T07:44:05;21.10;78.70
4056;DHT22;2043;52.184;8.690;2022-09-16T07:46:34;21.10;78.80
4056;DHT22;2043;52.184;8.690;2022-09-16T07:49:03;21.10;78.80
4056;DHT22;2043;52.184;8.690;2022-09-16T07:51:31;21.10;78.90
4056;DHT22;2043;52.184;8.690;2022-09-16T07:54:01;21.20;79.00
4056;DHT22;2043;52.184;8.690;2022-09-16T07:56:33;21.20;79.00
4056;DHT22;2043;52.184;8.690;2022-09-16T07:59:02;21.20;79.10
4056;DHT22;2043;52.184;8.690;2022-09-16T08:01:29;21.20;79.10
4056;DHT22;2043;52.184;8.690;2022-09-16T08:03:57;21.20;79.10
4056;DHT22;2043;52.184;8.690;2022-09-16T08:06:27;21.20;79.10
4056;DHT22;2043;52.184;8.690;2022-09-16T08:08:56;21.20;79.10
4056;DHT22;2043;52.184;8.690;2022-09-16T08:11:36;21.20;79.10
4056;DHT22;2043;52.184;8.690;2022-09-16T08:14:03;21.20;79.20
4056;DHT22;2043;52.184;8.690;2022-09-16T08:16:30;21.20;79.10
4056;DHT22;2043;52.184;8.690;2022-09-16T08:18:57;21.20;79.20
4056;DHT22;2043;52.184;8.690;2022-09-16T08:21:27;21.20;79.20
4056;DHT22;2043;52.184;8.690;2022-09-16T08:23:55;21.20;79.10
4056;DHT22;2043;52.184;8.690;2022-09-16T08:26:23;21.20;79.10
4056;DHT22;2043;52.184;8.690;2022-09-16T08:28:50;21.20;79.10
4056;DHT22;2043;52.184;8.690;2022-09-16T08:31:34;21.20;79.10
4056;DHT22;2043;52.184;8.690;2022-09-16T08:34:01;21.20;79.10
4056;DHT22;2043;52.184;8.690;2022-09-16T08:36:28;21.20;79.10
4056;DHT22;2043;52.184;8.690;2022-09-16T08:38:55;21.20;79.00
4056;DHT22;2043;52.184;8.690;2022-09-16T08:44:15;21.20;78.90
4056;DHT22;2043;52.184;8.690;2022-09-16T08:52:08;21.20;78.90
4056;DHT22;2043;52.184;8.690;2022-09-16T08:54:45;21.20;78.70
4056;DHT22;2043;52.184;8.690;2022-09-16T08:57:18;21.20;78.60
4056;DHT22;2043;52.184;8.690;2022-09-16T08:59:50;21.10;78.30
4056;DHT22;2043;52.184;8.690;2022-09-16T09:02:26;21.10;78.10
4056;DHT22;2043;52.184;8.690;2022-09-16T09:04:55;21.10;77.80
4056;DHT22;2043;52.184;8.690;2022-09-16T09:07:39;21.10;78.20
4056;DHT22;2043;52.184;8.690;2022-09-16T09:10:26;21.10;78.30
4056;DHT22;2043;52.184;8.690;2022-09-16T09:15:43;21.10;77.90
4056;DHT22;2043;52.184;8.690;2022-09-16T09:20:56;21.10;77.30
4056;DHT22;2043;52.184;8.690;2022-09-16T09:26:49;21.10;77.70
4056;DHT22;2043;52.184;8.690;2022-09-16T09:40:52;21.00;76.60
4056;DHT22;2043;52.184;8.690;2022-09-16T09:43:24;21.00;77.10
4056;DHT22;2043;52.184;8.690;2022-09-16T09:46:09;21.10;77.60
4056;DHT22;2043;52.184;8.690;2022-09-16T09:48:45;21.10;77.70
4056;DHT22;2043;52.184;8.690;2022-09-16T09:51:27;21.00;76.80
4056;DHT22;2043;52.184;8.690;2022-09-16T09:54:01;21.00;76.90
4056;DHT22;2043;52.184;8.690;2022-09-16T09:56:42;21.10;77.50
4056;DHT22;2043;52.184;8.690;2022-09-16T10:01:43;21.00;76.80
4056;DHT22;2043;52.184;8.690;2022-09-16T10:04:14;21.00;75.80
4056;DHT22;2043;52.184;8.690;2022-09-16T10:06:41;21.00;76.10
4056;DHT22;2043;52.184;8.690;2022-09-16T10:09:13;21.00;76.90
4056;DHT22;2043;52.184;8.690;2022-09-16T10:11:53;21.00;76.80
4056;DHT22;2043;52.184;8.690;2022-09-16T10:14:44;21.00;76.20
4056;DHT22;2043;52.184;8.690;2022-09-16T10:17:16;21.00;76.80
4056;DHT22;2043;52.184;8.690;2022-09-16T10:20:04;21.00;76.80
4056;DHT22;2043;52.184;8.690;2022-09-16T10:22:38;21.00;76.20
4056;DHT22;2043;52.184;8.690;2022-09-16T10:25:21;21.00;76.40
4056;DHT22;2043;52.184;8.690;2022-09-16T10:28:00;21.00;76.40
4056;DHT22;2043;52.184;8.690;2022-09-16T10:30:30;21.00;76.90
4056;DHT22;2043;52.184;8.690;2022-09-16T10:33:09;21.10;76.90
4056;DHT22;2043;52.184;8.690;2022-09-16T10:35:39;21.10;76.90
4056;DHT22;2043;52.184;8.690;2022-09-16T10:40:48;21.10;76.50
4056;DHT22;2043;52.184;8.690;2022-09-16T10:43:16;21.10;76.20
4056;DHT22;2043;52.184;8.690;2022-09-16T10:45:47;21.10;75.60
4056;DHT22;2043;52.184;8.690;2022-09-16T10:48:21;21.10;75.70
4056;DHT22;2043;52.184;8.690;2022-09-16T10:50:57;21.10;75.60
4056;DHT22;2043;52.184;8.690;2022-09-16T10:56:16;21.10;75.50
4056;DHT22;2043;52.184;8.690;2022-09-16T10:58:43;21.10;75.30
4056;DHT22;2043;52.184;8.690;2022-09-16T11:04:14;21.00;75.10
4056;DHT22;2043;52.184;8.690;2022-09-16T11:06:58;21.00;75.90
4056;DHT22;2043;52.184;8.690;2022-09-16T11:12:32;21.00;75.50
4056;DHT22;2043;52.184;8.690;2022-09-16T11:15:05;21.00;75.50
4056;DHT22;2043;52.184;8.690;2022-09-16T11:21:51;21.10;75.90
4056;DHT22;2043;52.184;8.690;2022-09-16T11:30:12;21.10;76.20
4056;DHT22;2043;52.184;8.690;2022-09-16T11:33:03;21.10;76.60
4056;DHT22;2043;52.184;8.690;2022-09-16T11:36:21;21.10;76.60
4056;DHT22;2043;52.184;8.690;2022-09-16T11:40:59;21.10;76.70
4056;DHT22;2043;52.184;8.690;2022-09-16T11:44:07;21.10;76.80
4056;DHT22;2043;52.184;8.690;2022-09-16T11:55:23;21.00;77.00
4056;DHT22;2043;52.184;8.690;2022-09-16T11:58:02;21.00;77.10
4056;DHT22;2043;52.184;8.690;2022-09-16T12:00:31;21.00;77.10
4056;DHT22;2043;52.184;8.690;2022-09-16T12:03:04;21.00;77.10
4056;DHT22;2043;52.184;8.690;2022-09-16T12:05:40;21.00;77.10
4056;DHT22;2043;52.184;8.690;2022-09-16T12:13:45;21.00;77.60
4056;DHT22;2043;52.184;8.690;2022-09-16T12:16:17;21.00;77.60
4056;DHT22;2043;52.184;8.690;2022-09-16T12:18:49;21.00;77.60
4056;DHT22;2043;52.184;8.690;2022-09-16T12:21:28;21.00;77.60
4056;DHT22;2043;52.184;8.690;2022-09-16T12:24:03;21.00;77.70
4056;DHT22;2043;52.184;8.690;2022-09-16T12:26:39;21.00;77.80
4056;DHT22;2043;52.184;8.690;2022-09-16T12:29:32;21.00;78.00
4056;DHT22;2043;52.184;8.690;2022-09-16T12:33:11;21.10;78.00
4056;DHT22;2043;52.184;8.690;2022-09-16T12:35:15;21.10;78.30
4056;DHT22;2043;52.184;8.690;2022-09-16T12:37:49;21.10;78.30
4056;DHT22;2043;52.184;8.690;2022-09-16T12:40:24;21.10;78.40
4056;DHT22;2043;52.184;8.690;2022-09-16T12:43:08;21.10;78.70
4056;DHT22;2043;52.184;8.690;2022-09-16T12:51:29;21.20;78.90
4056;DHT22;2043;52.184;8.690;2022-09-16T12:54:36;21.20;79.00
4056;DHT22;2043;52.184;8.690;2022-09-16T13:00:13;21.30;79.20
4056;DHT22;2043;52.184;8.690;2022-09-16T13:08:03;21.30;79.40
4056;DHT22;2043;52.184;8.690;2022-09-16T13:10:38;21.30;79.40
4056;DHT22;2043;52.184;8.690;2022-09-16T13:13:39;21.30;79.50
4056;DHT22;2043;52.184;8.690;2022-09-16T13:16:07;21.40;79.60
4056;DHT22;2043;52.184;8.690;2022-09-16T13:21:24;21.40;79.70
4056;DHT22;2043;52.184;8.690;2022-09-16T13:24:11;21.40;79.70
4056;DHT22;2043;52.184;8.690;2022-09-16T13:26:41;21.50;79.80
4056;DHT22;2043;52.184;8.690;2022-09-16T13:29:43;21.50;79.90
4056;DHT22;2043;52.184;8.690;2022-09-16T13:35:04;21.60;80.20
4056;DHT22;2043;52.184;8.690;2022-09-16T13:37:53;21.60;80.20
4056;DHT22;2043;52.184;8.690;2022-09-16T13:40:37;21.60;80.30
4056;DHT22;2043;52.184;8.690;2022-09-16T13:45:43;21.70;80.50
4056;DHT22;2043;52.184;8.690;2022-09-16T13:48:19;21.70;80.50
4056;DHT22;2043;52.184;8.690;2022-09-16T13:50:57;21.70;80.60
4056;DHT22;2043;52.184;8.690;2022-09-16T13:53:30;21.70;80.60
4056;DHT22;2043;52.184;8.690;2022-09-16T13:58:48;21.70;80.60
4056;DHT22;2043;52.184;8.690;2022-09-16T14:01:23;21.70;80.60
4056;DHT22;2043;52.184;8.690;2022-09-16T14:13:17;21.70;80.70
4056;DHT22;2043;52.184;8.690;2022-09-16T14:15:53;21.70;80.60
4056;DHT22;2043;52.184;8.690;2022-09-16T14:18:41;21.70;80.60
4056;DHT22;2043;52.184;8.690;2022-09-16T14:21:21;21.70;80.60
4056;DHT22;2043;52.184;8.690;2022-09-16T14:23:49;21.70;80.60
4056;DHT22;2043;52.184;8.690;2022-09-16T14:26:20;21.70;80.60
4056;DHT22;2043;52.184;8.690;2022-09-16T14:28:48;21.70;80.50
4056;DHT22;2043;52.184;8.690;2022-09-16T14:31:21;21.70;80.50
4056;DHT22;2043;52.184;8.690;2022-09-16T14:33:56;21.70;80.50
4056;DHT22;2043;52.184;8.690;2022-09-16T14:36:30;21.70;80.50
4056;DHT22;2043;52.184;8.690;2022-09-16T14:39:02;21.70;80.50
4056;DHT22;2043;52.184;8.690;2022-09-16T14:41:39;21.70;80.40
4056;DHT22;2043;52.184;8.690;2022-09-16T14:46:57;21.70;80.40
4056;DHT22;2043;52.184;8.690;2022-09-16T14:49:36;21.70;80.30
4056;DHT22;2043;52.184;8.690;2022-09-16T14:52:03;21.70;80.30
4056;DHT22;2043;52.184;8.690;2022-09-16T14:54:30;21.70;80.30
4056;DHT22;2043;52.184;8.690;2022-09-16T14:57:05;21.70;80.20
4056;DHT22;2043;52.184;8.690;2022-09-16T14:59:35;21.60;80.20
4056;DHT22;2043;52.184;8.690;2022-09-16T15:05:44;21.60;80.20
4056;DHT22;2043;52.184;8.690;2022-09-16T15:07:44;21.60;80.20
4056;DHT22;2043;52.184;8.690;2022-09-16T15:10:32;21.60;80.20
4056;DHT22;2043;52.184;8.690;2022-09-16T15:13:19;21.70;80.30
4056;DHT22;2043;52.184;8.690;2022-09-16T15:15:54;21.70;80.30
4056;DHT22;2043;52.184;8.690;2022-09-16T15:18:27;21.70;80.40
4056;DHT22;2043;52.184;8.690;2022-09-16T15:23:36;21.70;80.40
4056;DHT22;2043;52.184;8.690;2022-09-16T15:29:12;21.70;80.50
4056;DHT22;2043;52.184;8.690;2022-09-16T15:31:53;21.70;80.50
4056;DHT22;2043;52.184;8.690;2022-09-16T15:34:23;21.70;80.60
4056;DHT22;2043;52.184;8.690;2022-09-16T15:37:00;21.70;80.70
4056;DHT22;2043;52.184;8.690;2022-09-16T15:39:30;21.70;80.80
4056;DHT22;2043;52.184;8.690;2022-09-16T15:42:16;21.80;80.80
4056;DHT22;2043;52.184;8.690;2022-09-16T15:44:52;21.80;80.90
4056;DHT22;2043;52.184;8.690;2022-09-16T15:47:34;21.80;81.00
4056;DHT22;2043;52.184;8.690;2022-09-16T15:50:12;21.80;81.10
4056;DHT22;2043;52.184;8.690;2022-09-16T15:53:54;21.90;81.10
4056;DHT22;2043;52.184;8.690;2022-09-16T15:55:54;21.90;81.20
4056;DHT22;2043;52.184;8.690;2022-09-16T15:58:44;21.90;81.20
4056;DHT22;2043;52.184;8.690;2022-09-16T16:06:12;21.90;81.20
4056;DHT22;2043;52.184;8.690;2022-09-16T16:08:48;21.90;81.20
4056;DHT22;2043;52.184;8.690;2022-09-16T16:11:20;21.90;81.20
4056;DHT22;2043;52.184;8.690;2022-09-16T16:13:50;21.90;81.20
4056;DHT22;2043;52.184;8.690;2022-09-16T16:16:29;21.90;81.20
4056;DHT22;2043;52.184;8.690;2022-09-16T16:19:20;21.90;81.20
4056;DHT22;2043;52.184;8.690;2022-09-16T16:21:49;21.90;81.20
4056;DHT22;2043;52.184;8.690;2022-09-16T16:24:19;21.90;81.20
4056;DHT22;2043;52.184;8.690;2022-09-16T16:26:46;21.90;81.30
4056;DHT22;2043;52.184;8.690;2022-09-16T16:29:13;21.90;81.30
4056;DHT22;2043;52.184;8.690;2022-09-16T16:34:33;21.90;81.30
4056;DHT22;2043;52.184;8.690;2022-09-16T16:37:00;21.90;81.20
4056;DHT22;2043;52.184;8.690;2022-09-16T16:39:27;21.90;81.20
4056;DHT22;2043;52.184;8.690;2022-09-16T16:41:54;21.90;81.20
4056;DHT22;2043;52.184;8.690;2022-09-16T16:44:22;21.90;81.20
4056;DHT22;2043;52.184;8.690;2022-09-16T16:46:52;21.90;81.10
4056;DHT22;2043;52.184;8.690;2022-09-16T16:49:20;21.90;81.10
4056;DHT22;2043;52.184;8.690;2022-09-16T16:51:50;21.90;81.00
4056;DHT22;2043;52.184;8.690;2022-09-16T16:54:23;21.90;81.00
4056;DHT22;2043;52.184;8.690;2022-09-16T16:56:59;21.80;81.00
4056;DHT22;2043;52.184;8.690;2022-09-16T16:59:31;21.90;80.90
4056;DHT22;2043;52.184;8.690;2022-09-16T17:02:01;21.80;80.90
4056;DHT22;2043;52.184;8.690;2022-09-16T17:04:34;21.80;80.90
4056;DHT22;2043;52.184;8.690;2022-09-16T17:07:06;21.80;80.80
4056;DHT22;2043;52.184;8.690;2022-09-16T17:09:54;21.80;80.80
4056;DHT22;2043;52.184;8.690;2022-09-16T17:12:25;21.80;80.80
4056;DHT22;2043;52.184;8.690;2022-09-16T17:14:53;21.80;80.80
4056;DHT22;2043;52.184;8.690;2022-09-16T17:17:23;21.80;80.70
4056;DHT22;2043;52.184;8.690;2022-09-16T17:19:59;21.80;80.70
4056;DHT22;2043;52.184;8.690;2022-09-16T17:22:26;21.80;80.60
4056;DHT22;2043;52.184;8.690;2022-09-16T17:24:55;21.80;80.60
4056;DHT22;2043;52.184;8.690;2022-09-16T17:27:24;21.80;80.60
4056;DHT22;2043;52.184;8.690;2022-09-16T17:29:56;21.80;80.60
4056;DHT22;2043;52.184;8.690;2022-09-16T17:32:26;21.80;80.50
4056;DHT22;2043;52.184;8.690;2022-09-16T17:34:53;21.80;80.50
4056;DHT22;2043;52.184;8.690;2022-09-16T17:37:23;21.80;80.50
4056;DHT22;2043;52.184;8.690;2022-09-16T17:39:52;21.80;80.50
4056;DHT22;2043;52.184;8.690;2022-09-16T17:42:22;21.80;80.50
4056;DHT22;2043;52.184;8.690;2022-09-16T17:44:54;21.80;80.40
4056;DHT22;2043;52.184;8.690;2022-09-16T17:47:30;21.70;80.40
4056;DHT22;2043;52.184;8.690;2022-09-16T17:50:02;21.70;80.40
4056;DHT22;2043;52.184;8.690;2022-09-16T17:52:30;21.70;80.40
4056;DHT22;2043;52.184;8.690;2022-09-16T17:55:05;21.70;80.40
4056;DHT22;2043;52.184;8.690;2022-09-16T17:57:32;21.70;80.30
4056;DHT22;2043;52.184;8.690;2022-09-16T18:00:06;21.70;80.30
4056;DHT22;2043;52.184;8.690;2022-09-16T18:02:34;21.70;80.30
4056;DHT22;2043;52.184;8.690;2022-09-16T18:05:04;21.70;80.30
4056;DHT22;2043;52.184;8.690;2022-09-16T18:07:31;21.70;80.30
4056;DHT22;2043;52.184;8.690;2022-09-16T18:09:58;21.70;80.30
4056;DHT22;2043;52.184;8.690;2022-09-16T18:12:24;21.70;80.30
4056;DHT22;2043;52.184;8.690;2022-09-16T18:14:51;21.70;80.20
4056;DHT22;2043;52.184;8.690;2022-09-16T18:17:19;21.70;80.30
4056;DHT22;2043;52.184;8.690;2022-09-16T18:19:46;21.70;80.20
4056;DHT22;2043;52.184;8.690;2022-09-16T18:22:13;21.70;80.20
4056;DHT22;2043;52.184;8.690;2022-09-16T18:24:40;21.70;80.20
4056;DHT22;2043;52.184;8.690;2022-09-16T18:27:06;21.70;80.20
4056;DHT22;2043;52.184;8.690;2022-09-16T18:29:36;21.70;80.20
4056;DHT22;2043;52.184;8.690;2022-09-16T18:32:09;21.60;80.20
4056;DHT22;2043;52.184;8.690;2022-09-16T18:34:36;21.60;80.20
4056;DHT22;2043;52.184;8.690;2022-09-16T18:37:11;21.60;80.20
4056;DHT22;2043;52.184;8.690;2022-09-16T18:39:41;21.60;80.10
4056;DHT22;2043;52.184;8.690;2022-09-16T18:42:08;21.60;80.10
4056;DHT22;2043;52.184;8.690;2022-09-16T18:44:38;21.60;80.10
4056;DHT22;2043;52.184;8.690;2022-09-16T18:47:10;21.60;80.10
4056;DHT22;2043;52.184;8.690;2022-09-16T18:49:42;21.60;80.10
4056;DHT22;2043;52.184;8.690;2022-09-16T18:57:07;21.60;80.10
4056;DHT22;2043;52.184;8.690;2022-09-16T18:59:37;21.60;80.10
4056;DHT22;2043;52.184;8.690;2022-09-16T19:02:09;21.60;80.00
4056;DHT22;2043;52.184;8.690;2022-09-16T19:04:41;21.60;80.00
4056;DHT22;2043;52.184;8.690;2022-09-16T19:07:15;21.60;80.00
4056;DHT22;2043;52.184;8.690;2022-09-16T19:09:47;21.60;80.00
4056;DHT22;2043;52.184;8.690;2022-09-16T19:12:22;21.60;80.00
4056;DHT22;2043;52.184;8.690;2022-09-16T19:14:52;21.60;80.00
4056;DHT22;2043;52.184;8.690;2022-09-16T19:17:21;21.60;80.00
4056;DHT22;2043;52.184;8.690;2022-09-16T19:19:49;21.60;80.00
4056;DHT22;2043;52.184;8.690;2022-09-16T19:22:17;21.60;80.00
4056;DHT22;2043;52.184;8.690;2022-09-16T19:24:44;21.50;80.00
4056;DHT22;2043;52.184;8.690;2022-09-16T19:27:20;21.50;80.00
4056;DHT22;2043;52.184;8.690;2022-09-16T19:29:50;21.50;80.00